| time (UTC) | temp F | wind direction | speed MPH | gust MPH | rain 1hr in | rain 24hr in | rain mn in | humidity % | barometer mb |
| 20260903021517 | 67 | 0.0 | 0.0 | 0.00 | 1.27 | 1.27 | 97 | 1010.2 | |
| 20260903020516 | 67 | 0.0 | 0.0 | 0.00 | 1.27 | 1.27 | 97 | 1010.3 | |
| 20260903015516 | 67 | 0.0 | 0.0 | 0.00 | 1.27 | 1.27 | 97 | 1010.3 | |
| 20260903014517 | 67 | 0.0 | 0.0 | 0.00 | 1.27 | 1.27 | 97 | 1010.4 | |
| 20260903013516 | 67 | 0.0 | 0.0 | 0.00 | 1.27 | 1.27 | 97 | 1010.4 | |
| 20260903012516 | 67 | 0.0 | 0.0 | 0.00 | 1.27 | 1.27 | 97 | 1010.3 | |
| 20260903011537 | 67 | 0.0 | 0.0 | 0.00 | 1.27 | 1.27 | 97 | 1010.4 | |
| 20260903010517 | 68 | 0.0 | 0.0 | 0.00 | 1.27 | 1.27 | 97 | 1010.3 | |
| 20260903005516 | 68 | 0.0 | 0.0 | 0.00 | 1.27 | 1.27 | 97 | 1010.3 | |
| 20260903004516 | 68 | 0.0 | 0.0 | 0.00 | 1.27 | 1.27 | 97 | 1010.2 | |
| 20260903003516 | 68 | 0.0 | 0.0 | 0.00 | 1.27 | 1.27 | 97 | 1010.2 | |
| 20260903002516 | 68 | 0.0 | 0.0 | 0.01 | 1.27 | 1.27 | 96 | 1010.2 | |
| 20260903001516 | 68 | 0.0 | 0.0 | 0.02 | 1.27 | 1.27 | 96 | 1010.1 | |
| 20260903000516 | 68 | 0.0 | 0.0 | 0.11 | 1.27 | 1.27 | 96 | 1010.3 | |
| 20260902235516 | 68 | 0.0 | 0.0 | 0.40 | 1.27 | 1.27 | 96 | 1010.6 | |
| 20260902234516 | 68 | 0.0 | 0.0 | 0.54 | 1.27 | 1.27 | 95 | 1010.5 | |
| 20260902233516 | 68 | 135 | 2.0 | 4.0 | 0.80 | 1.27 | 1.27 | 95 | 1010.3 |
| 20260902232536 | 68 | 203 | 2.0 | 9.0 | 1.03 | 1.26 | 1.26 | 95 | 1010.5 |
| 20260902231556 | 68 | 90 | 3.0 | 5.0 | 1.04 | 1.24 | 1.24 | 93 | 1010.7 |
| 20260902230517 | 69 | 90 | 2.0 | 4.0 | 0.98 | 1.16 | 1.16 | 95 | 1010.9 |
| 20260902225516 | 69 | 158 | 1.0 | 5.0 | 0.79 | 0.87 | 0.87 | 95 | 1011.4 |
| 20260902224516 | 70 | 0.0 | 2.0 | 0.72 | 0.72 | 0.73 | 95 | 1011.5 | |
| 20260902223518 | 70 | 0.0 | 2.0 | 0.47 | 0.47 | 0.47 | 94 | 1011.5 | |
| 20260902222516 | 70 | 158 | 7.0 | 10.0 | 0.23 | 0.23 | 0.23 | 90 | 1011.1 |
| 20260902221537 | 70 | 135 | 5.0 | 7.0 | 0.20 | 0.20 | 0.20 | 89 | 1011.0 |
| 20260902220516 | 70 | 0.0 | 0.0 | 0.17 | 0.17 | 0.17 | 86 | 1011.1 | |
| 20260902215516 | 71 | 0.0 | 1.0 | 0.08 | 0.08 | 0.08 | 83 | 1011.1 | |
| 20260902214516 | 71 | 158 | 4.0 | 7.0 | 0.01 | 0.01 | 0.01 | 81 | 1010.8 |
| 20260902213516 | 71 | 158 | 3.0 | 8.0 | 0.00 | 0.00 | 0.00 | 80 | 1010.9 |
| 20260902212516 | 71 | 158 | 4.0 | 7.0 | 0.00 | 0.00 | 0.00 | 79 | 1010.7 |
| 20260902211516 | 71 | 158 | 3.0 | 7.0 | 0.00 | 0.00 | 0.00 | 80 | 1010.8 |
| 20260902210536 | 71 | 158 | 4.0 | 9.0 | 0.00 | 0.00 | 0.00 | 79 | 1011.1 |
| 20260902205516 | 71 | 158 | 4.0 | 8.0 | 0.00 | 0.00 | 0.00 | 79 | 1011.4 |
| 20260902204516 | 71 | 158 | 3.0 | 5.0 | 0.00 | 0.00 | 0.00 | 79 | 1011.5 |
| 20260902203516 | 71 | 158 | 4.0 | 8.0 | 0.00 | 0.00 | 0.00 | 79 | 1011.5 |
| 20260902202517 | 71 | 158 | 4.0 | 8.0 | 0.00 | 0.00 | 0.00 | 78 | 1011.4 |
| 20260902201516 | 72 | 158 | 5.0 | 11.0 | 0.00 | 0.00 | 0.00 | 77 | 1011.5 |
| 20260902200516 | 72 | 158 | 5.0 | 10.0 | 0.00 | 0.00 | 0.00 | 77 | 1011.8 |
| 20260902195516 | 72 | 158 | 4.0 | 9.0 | 0.00 | 0.00 | 0.00 | 77 | 1012.2 |
| 20260902194516 | 72 | 158 | 5.0 | 11.0 | 0.00 | 0.00 | 0.00 | 77 | 1012.2 |
| 20260902193521 | 72 | 180 | 4.0 | 10.0 | 0.00 | 0.00 | 0.00 | 76 | 1012.2 |
| 20260902192516 | 72 | 158 | 4.0 | 9.0 | 0.00 | 0.00 | 0.00 | 76 | 1012.0 |
| 20260902191516 | 72 | 135 | 3.0 | 9.0 | 0.00 | 0.00 | 0.00 | 76 | 1012.3 |
| 20260902190516 | 72 | 158 | 4.0 | 8.0 | 0.00 | 0.00 | 0.00 | 76 | 1012.5 |
| 20260902185517 | 72 | 158 | 2.0 | 5.0 | 0.00 | 0.00 | 0.00 | 75 | 1012.7 |
| 20260902184516 | 72 | 158 | 3.0 | 10.0 | 0.00 | 0.00 | 0.00 | 75 | 1012.8 |
| 20260902183516 | 72 | 158 | 4.0 | 9.0 | 0.00 | 0.00 | 0.00 | 76 | 1013.0 |
| 20260902182516 | 72 | 158 | 4.0 | 9.0 | 0.00 | 0.00 | 0.00 | 76 | 1013.0 |
| 20260902181517 | 72 | 158 | 3.0 | 9.0 | 0.00 | 0.00 | 0.00 | 76 | 1013.1 |
| 20260902180617 | 71 | 158 | 2.0 | 5.0 | 0.00 | 0.00 | 0.00 | 77 | 1013.3 |
| 20260902175516 | 71 | 158 | 4.0 | 10.0 | 0.00 | 0.00 | 0.00 | 77 | 1013.2 |
| 20260902174516 | 71 | 158 | 2.0 | 8.0 | 0.00 | 0.00 | 0.00 | 77 | 1013.5 |
| 20260902173516 | 71 | 158 | 2.0 | 6.0 | 0.00 | 0.00 | 0.00 | 77 | 1013.5 |
| 20260902172516 | 71 | 158 | 4.0 | 8.0 | 0.00 | 0.00 | 0.00 | 77 | 1013.4 |
| 20260902171517 | 70 | 158 | 3.0 | 9.0 | 0.00 | 0.00 | 0.00 | 77 | 1013.6 |
| 20260902170516 | 70 | 158 | 2.0 | 4.0 | 0.00 | 0.00 | 0.00 | 77 | 1013.7 |
| 20260902165516 | 70 | 158 | 3.0 | 8.0 | 0.00 | 0.00 | 0.00 | 77 | 1013.7 |
| 20260902164516 | 69 | 158 | 5.0 | 9.0 | 0.00 | 0.00 | 0.00 | 78 | 1013.9 |
| 20260902163516 | 69 | 158 | 4.0 | 6.0 | 0.00 | 0.00 | 0.00 | 78 | 1014.0 |
| 20260902162536 | 69 | 135 | 5.0 | 10.0 | 0.00 | 0.00 | 0.00 | 78 | 1014.0 |
| 20260902161516 | 68 | 158 | 4.0 | 9.0 | 0.00 | 0.00 | 0.00 | 79 | 1014.2 |
| 20260902160516 | 68 | 158 | 3.0 | 9.0 | 0.00 | 0.00 | 0.00 | 79 | 1014.3 |
| 20260902155516 | 68 | 158 | 2.0 | 5.0 | 0.00 | 0.00 | 0.00 | 80 | 1014.5 |
| 20260902154516 | 68 | 158 | 6.0 | 11.0 | 0.00 | 0.00 | 0.00 | 79 | 1014.5 |
| 20260902153516 | 68 | 158 | 5.0 | 10.0 | 0.00 | 0.00 | 0.00 | 79 | 1014.7 |
| 20260902152556 | 68 | 158 | 7.0 | 13.0 | 0.00 | 0.00 | 0.00 | 79 | 1014.4 |
| 20260902151516 | 68 | 135 | 6.0 | 10.0 | 0.00 | 0.00 | 0.00 | 79 | 1014.4 |
| 20260902150516 | 68 | 135 | 5.0 | 8.0 | 0.00 | 0.00 | 0.00 | 78 | 1014.7 |
| 20260902145516 | 68 | 135 | 3.0 | 6.0 | 0.00 | 0.00 | 0.00 | 79 | 1014.9 |
| 20260902144516 | 67 | 158 | 4.0 | 7.0 | 0.00 | 0.00 | 0.00 | 79 | 1015.0 |
| 20260902143516 | 67 | 135 | 4.0 | 9.0 | 0.00 | 0.00 | 0.00 | 79 | 1014.9 |
| 20260902142516 | 66 | 135 | 4.0 | 7.0 | 0.00 | 0.00 | 0.00 | 78 | 1015.2 |
| 20260902141637 | 67 | 158 | 2.0 | 5.0 | 0.00 | 0.00 | 0.00 | 79 | 1015.2 |
| 20260902140517 | 67 | 158 | 5.0 | 9.0 | 0.00 | 0.00 | 0.00 | 78 | 1015.3 |
| 20260902135516 | 67 | 158 | 3.0 | 9.0 | 0.00 | 0.00 | 0.00 | 78 | 1015.4 |
| 20260902134516 | 67 | 158 | 4.0 | 8.0 | 0.00 | 0.00 | 0.00 | 77 | 1015.2 |
| 20260902133516 | 66 | 158 | 5.0 | 10.0 | 0.00 | 0.00 | 0.00 | 77 | 1015.2 |
| 20260902132516 | 66 | 135 | 3.0 | 7.0 | 0.00 | 0.00 | 0.00 | 78 | 1015.3 |
| 20260902131516 | 66 | 135 | 3.0 | 8.0 | 0.00 | 0.00 | 0.00 | 78 | 1015.4 |
| 20260902130516 | 66 | 158 | 6.0 | 10.0 | 0.00 | 0.00 | 0.00 | 77 | 1015.5 |
| 20260902125536 | 66 | 158 | 3.0 | 6.0 | 0.00 | 0.00 | 0.00 | 77 | 1015.6 |
| 20260902124516 | 66 | 158 | 4.0 | 9.0 | 0.00 | 0.00 | 0.00 | 78 | 1015.5 |
| 20260902123517 | 66 | 158 | 5.0 | 9.0 | 0.00 | 0.00 | 0.00 | 78 | 1015.7 |
| 20260902122517 | 66 | 158 | 2.0 | 5.0 | 0.00 | 0.00 | 0.00 | 77 | 1015.7 |
| 20260902121537 | 66 | 158 | 4.0 | 8.0 | 0.00 | 0.00 | 0.00 | 77 | 1015.8 |
| 20260902120516 | 66 | 158 | 4.0 | 7.0 | 0.00 | 0.00 | 0.00 | 75 | 1015.6 |
| 20260902115516 | 66 | 158 | 3.0 | 5.0 | 0.00 | 0.00 | 0.00 | 77 | 1015.9 |
| 20260902114516 | 65 | 158 | 3.0 | 7.0 | 0.00 | 0.00 | 0.00 | 75 | 1015.8 |
| 20260902113516 | 65 | 135 | 4.0 | 8.0 | 0.00 | 0.00 | 0.00 | 74 | 1015.7 |
| 20260902112516 | 65 | 135 | 4.0 | 7.0 | 0.00 | 0.00 | 0.00 | 73 | 1015.6 |
| 20260902111536 | 65 | 135 | 4.0 | 7.0 | 0.00 | 0.00 | 0.00 | 73 | 1015.7 |
| 20260902110516 | 65 | 158 | 4.0 | 8.0 | 0.00 | 0.00 | 0.00 | 71 | 1015.6 |
| 20260902105516 | 66 | 158 | 4.0 | 10.0 | 0.00 | 0.00 | 0.00 | 72 | 1015.5 |
| 20260902104516 | 66 | 158 | 4.0 | 6.0 | 0.00 | 0.00 | 0.00 | 71 | 1015.6 |
| 20260902103516 | 66 | 135 | 4.0 | 7.0 | 0.00 | 0.00 | 0.00 | 70 | 1015.7 |
| 20260902102536 | 66 | 158 | 1.0 | 7.0 | 0.00 | 0.00 | 0.00 | 70 | 1016.0 |
| 20260902101516 | 66 | 158 | 1.0 | 4.0 | 0.00 | 0.00 | 0.00 | 68 | 1016.3 |
| 20260902100516 | 65 | 0.0 | 2.0 | 0.00 | 0.00 | 0.00 | 67 | 1016.3 | |
| 20260902095536 | 66 | 0.0 | 0.0 | 0.00 | 0.00 | 0.00 | 68 | 1016.5 | |
| 20260902094537 | 66 | 158 | 1.0 | 3.0 | 0.00 | 0.00 | 0.00 | 67 | 1016.6 |
| 20260902093517 | 66 | 0.0 | 0.0 | 0.00 | 0.00 | 0.00 | 67 | 1016.6 | |
| 20260902092516 | 66 | 0.0 | 0.0 | 0.00 | 0.00 | 0.00 | 66 | 1016.5 | |
| 20260902091516 | 66 | 0.0 | 0.0 | 0.00 | 0.00 | 0.00 | 66 | 1016.6 | |
| 20260902090536 | 66 | 0.0 | 0.0 | 0.00 | 0.00 | 0.00 | 65 | 1016.4 | |
| 20260902085516 | 66 | 0.0 | 0.0 | 0.00 | 0.00 | 0.00 | 66 | 1016.5 | |
| 20260902084516 | 66 | 0.0 | 0.0 | 0.00 | 0.00 | 0.00 | 67 | 1016.3 | |
| 20260902083517 | 66 | 0.0 | 0.0 | 0.00 | 0.00 | 0.00 | 66 | 1016.6 | |
| 20260902082516 | 65 | 0.0 | 0.0 | 0.00 | 0.00 | 0.00 | 68 | 1016.6 | |
| 20260902081536 | 65 | 0.0 | 0.0 | 0.00 | 0.00 | 0.00 | 68 | 1016.7 | |
| 20260902080516 | 65 | 0.0 | 0.0 | 0.00 | 0.00 | 0.00 | 66 | 1016.7 | |
| 20260902075516 | 66 | 0.0 | 0.0 | 0.00 | 0.00 | 0.00 | 66 | 1016.6 | |
| 20260902074516 | 66 | 0.0 | 0.0 | 0.00 | 0.00 | 0.00 | 65 | 1016.5 | |
| 20260902073516 | 66 | 0.0 | 0.0 | 0.00 | 0.00 | 0.00 | 64 | 1016.3 | |
| 20260902072516 | 67 | 0.0 | 0.0 | 0.00 | 0.00 | 0.00 | 65 | 1016.5 | |
| 20260902071536 | 67 | 158 | 1.0 | 3.0 | 0.00 | 0.00 | 0.00 | 62 | 1016.3 |
| 20260902070516 | 67 | 0.0 | 0.0 | 0.00 | 0.00 | 0.00 | 65 | 1016.2 | |
| 20260902065517 | 67 | 0.0 | 0.0 | 0.00 | 0.00 | 0.00 | 63 | 1016.3 | |
| 20260902064516 | 67 | 0.0 | 1.0 | 0.00 | 0.00 | 0.00 | 63 | 1016.4 | |
| 20260902063516 | 67 | 0.0 | 3.0 | 0.00 | 0.00 | 0.00 | 63 | 1016.4 | |
| 20260902062537 | 67 | 158 | 1.0 | 3.0 | 0.00 | 0.00 | 0.00 | 61 | 1016.5 |
| 20260902061557 | 67 | 158 | 2.0 | 4.0 | 0.00 | 0.00 | 0.00 | 62 | 1016.6 |
| 20260902060516 | 67 | 158 | 2.0 | 3.0 | 0.00 | 0.00 | 0.00 | 63 | 1016.6 |
| 20260902055516 | 67 | 158 | 2.0 | 4.0 | 0.00 | 0.00 | 0.00 | 62 | 1016.6 |
| 20260902054516 | 67 | 158 | 1.0 | 3.0 | 0.00 | 0.00 | 0.00 | 63 | 1016.7 |
| 20260902053537 | 67 | 0.0 | 3.0 | 0.00 | 0.00 | 0.00 | 64 | 1016.7 | |
| 20260902052516 | 68 | 0.0 | 2.0 | 0.00 | 0.00 | 0.00 | 62 | 1016.8 | |
| 20260902051516 | 68 | 158 | 1.0 | 3.0 | 0.00 | 0.00 | 0.00 | 62 | 1016.7 |
| 20260902050516 | 68 | 158 | 1.0 | 3.0 | 0.00 | 0.00 | 0.00 | 61 | 1016.6 |
| 20260902045516 | 68 | 158 | 3.0 | 6.0 | 0.00 | 0.00 | 0.00 | 61 | 1016.6 |
| 20260902044517 | 68 | 158 | 3.0 | 5.0 | 0.00 | 0.00 | 0.00 | 60 | 1016.7 |
| 20260902043516 | 68 | 158 | 4.0 | 8.0 | 0.00 | 0.00 | 0.00 | 60 | 1016.6 |
| 20260902042516 | 68 | 158 | 4.0 | 7.0 | 0.00 | 0.00 | 0.00 | 61 | 1016.8 |
| 20260902041516 | 67 | 158 | 3.0 | 5.0 | 0.00 | 0.00 | 0.00 | 61 | 1016.6 |
| 20260902040516 | 67 | 135 | 3.0 | 5.0 | 0.00 | 0.00 | 0.00 | 61 | 1016.6 |
| 20260902035517 | 67 | 135 | 1.0 | 3.0 | 0.00 | 0.00 | 0.00 | 64 | 1016.3 |
| 20260902034516 | 68 | 135 | 2.0 | 5.0 | 0.00 | 0.00 | 0.00 | 63 | 1016.4 |
| 20260902033536 | 68 | 0.0 | 3.0 | 0.00 | 0.00 | 0.00 | 63 | 1016.4 | |
| 20260902032516 | 68 | 135 | 1.0 | 3.0 | 0.00 | 0.00 | 0.00 | 63 | 1016.3 |
| 20260902031516 | 67 | 0.0 | 1.0 | 0.00 | 0.00 | 0.00 | 63 | 1016.4 | |
| 20260902030516 | 67 | 0.0 | 2.0 | 0.00 | 0.00 | 0.00 | 65 | 1016.3 | |
| 20260902025516 | 67 | 135 | 1.0 | 2.0 | 0.00 | 0.00 | 0.00 | 66 | 1016.5 |
| 20260902024517 | 66 | 0.0 | 1.0 | 0.00 | 0.00 | 0.00 | 75 | 1016.6 | |
| 20260902023516 | 66 | 0.0 | 0.0 | 0.00 | 0.00 | 0.00 | 76 | 1016.6 | |
| 20260902022516 | 66 | 0.0 | 0.0 | 0.00 | 0.00 | 0.00 | 74 | 1016.7 |